sensor_id;sensor_type;location;lat;lon;timestamp;pressure;altitude;pressure_sealevel;temperature;humidity
38780;BME280;29273;49.962;9.768;2023-04-09T00:01:09;100617.88;;;10.61;53.69
38780;BME280;29273;49.962;9.768;2023-04-09T00:03:35;100618.22;;;10.58;53.98
38780;BME280;29273;49.962;9.768;2023-04-09T00:06:01;100620.88;;;10.58;53.83
38780;BME280;29273;49.962;9.768;2023-04-09T00:08:26;100615.56;;;10.58;53.90
38780;BME280;29273;49.962;9.768;2023-04-09T00:10:53;100618.22;;;10.58;54.08
38780;BME280;29273;49.962;9.768;2023-04-09T00:13:19;100600.66;;;10.57;54.32
38780;BME280;29273;49.962;9.768;2023-04-09T00:15:45;100610.91;;;10.60;54.24
38780;BME280;29273;49.962;9.768;2023-04-09T00:18:12;100605.59;;;10.60;54.38
38780;BME280;29273;49.962;9.768;2023-04-09T00:20:37;100609.91;;;10.61;53.98
38780;BME280;29273;49.962;9.768;2023-04-09T00:23:03;100613.38;;;10.62;53.96
38780;BME280;29273;49.962;9.768;2023-04-09T00:25:29;100609.91;;;10.61;54.03
38780;BME280;29273;49.962;9.768;2023-04-09T00:27:55;100607.09;;;10.63;54.05
38780;BME280;29273;49.962;9.768;2023-04-09T00:30:21;100611.34;;;10.64;54.13
38780;BME280;29273;49.962;9.768;2023-04-09T00:32:47;100612.19;;;10.64;54.10
38780;BME280;29273;49.962;9.768;2023-04-09T00:35:12;100614.00;;;10.64;54.13
38780;BME280;29273;49.962;9.768;2023-04-09T00:37:38;100609.56;;;10.64;54.19
38780;BME280;29273;49.962;9.768;2023-04-09T00:40:04;100607.72;;;10.65;53.91
38780;BME280;29273;49.962;9.768;2023-04-09T00:42:31;100610.19;;;10.66;54.28
38780;BME280;29273;49.962;9.768;2023-04-09T00:44:57;100612.84;;;10.66;54.19
38780;BME280;29273;49.962;9.768;2023-04-09T00:47:22;100608.53;;;10.65;54.08
38780;BME280;29273;49.962;9.768;2023-04-09T00:49:48;100608.53;;;10.65;54.27
38780;BME280;29273;49.962;9.768;2023-04-09T00:52:13;100610.19;;;10.66;54.48
38780;BME280;29273;49.962;9.768;2023-04-09T00:54:39;100606.72;;;10.66;54.57
38780;BME280;29273;49.962;9.768;2023-04-09T00:57:05;100610.19;;;10.66;54.16
38780;BME280;29273;49.962;9.768;2023-04-09T00:59:31;100605.69;;;10.67;54.16
38780;BME280;29273;49.962;9.768;2023-04-09T01:01:57;100611.00;;;10.67;54.27
38780;BME280;29273;49.962;9.768;2023-04-09T01:04:23;100604.72;;;10.68;54.22
38780;BME280;29273;49.962;9.768;2023-04-09T01:07:04;100604.53;;;10.69;53.81
38780;BME280;29273;49.962;9.768;2023-04-09T01:09:35;100611.00;;;10.67;54.39
38780;BME280;29273;49.962;9.768;2023-04-09T01:15:01;100603.16;;;10.73;54.07
38780;BME280;29273;49.962;9.768;2023-04-09T01:17:33;100601.53;;;10.72;54.06
38780;BME280;29273;49.962;9.768;2023-04-09T01:20:11;100594.38;;;10.73;54.01
38780;BME280;29273;49.962;9.768;2023-04-09T01:23:00;100599.50;;;10.74;53.96
38780;BME280;29273;49.962;9.768;2023-04-09T01:25:43;100597.03;;;10.73;53.93
38780;BME280;29273;49.962;9.768;2023-04-09T01:28:41;100589.44;;;10.70;53.99
38780;BME280;29273;49.962;9.768;2023-04-09T01:31:13;100601.97;;;10.76;54.06
38780;BME280;29273;49.962;9.768;2023-04-09T01:33:42;100596.00;;;10.74;54.33
38780;BME280;29273;49.962;9.768;2023-04-09T01:36:08;100597.22;;;10.71;54.57
38780;BME280;29273;49.962;9.768;2023-04-09T01:38:35;100597.84;;;10.73;54.59
38780;BME280;29273;49.962;9.768;2023-04-09T01:41:02;100602.16;;;10.74;54.49
38780;BME280;29273;49.962;9.768;2023-04-09T01:43:29;100598.66;;;10.74;54.37
38780;BME280;29273;49.962;9.768;2023-04-09T01:45:56;100603.16;;;10.73;54.57
38780;BME280;29273;49.962;9.768;2023-04-09T01:48:23;100604.97;;;10.73;54.27
38780;BME280;29273;49.962;9.768;2023-04-09T01:50:50;100604.97;;;10.73;54.51
38780;BME280;29273;49.962;9.768;2023-04-09T01:53:16;100610.09;;;10.74;54.26
38780;BME280;29273;49.962;9.768;2023-04-09T01:55:42;100600.69;;;10.72;54.51
38780;BME280;29273;49.962;9.768;2023-04-09T01:58:07;100602.50;;;10.71;54.50
38780;BME280;29273;49.962;9.768;2023-04-09T02:00:44;100607.09;;;10.78;53.90
38780;BME280;29273;49.962;9.768;2023-04-09T02:03:23;100612.56;;;10.76;54.06
38780;BME280;29273;49.962;9.768;2023-04-09T02:05:57;100609.75;;;10.78;54.21
38780;BME280;29273;49.962;9.768;2023-04-09T02:08:26;100607.44;;;10.74;54.56
38780;BME280;29273;49.962;9.768;2023-04-09T02:10:57;100610.72;;;10.77;54.38
38780;BME280;29273;49.962;9.768;2023-04-09T02:13:24;100607.44;;;10.74;54.58
38780;BME280;29273;49.962;9.768;2023-04-09T02:15:55;100613.91;;;10.72;54.42
38780;BME280;29273;49.962;9.768;2023-04-09T02:18:25;100612.38;;;10.78;54.29
38780;BME280;29273;49.962;9.768;2023-04-09T02:20:55;100606.81;;;10.72;54.80
38780;BME280;29273;49.962;9.768;2023-04-09T02:23:21;100615.75;;;10.71;54.76
38780;BME280;29273;49.962;9.768;2023-04-09T02:25:47;100608.63;;;10.72;54.74
38780;BME280;29273;49.962;9.768;2023-04-09T02:28:13;100607.81;;;10.71;54.79
38780;BME280;29273;49.962;9.768;2023-04-09T02:30:38;100609.47;;;10.72;54.39
38780;BME280;29273;49.962;9.768;2023-04-09T02:33:04;100611.09;;;10.73;54.74
38780;BME280;29273;49.962;9.768;2023-04-09T02:35:29;100608.44;;;10.73;54.95
38780;BME280;29273;49.962;9.768;2023-04-09T02:37:55;100604.16;;;10.72;54.78
38780;BME280;29273;49.962;9.768;2023-04-09T02:40:21;100604.16;;;10.72;54.90
38780;BME280;29273;49.962;9.768;2023-04-09T02:42:47;100611.28;;;10.72;54.88
38780;BME280;29273;49.962;9.768;2023-04-09T02:45:12;100602.50;;;10.71;54.87
38780;BME280;29273;49.962;9.768;2023-04-09T02:47:38;100605.97;;;10.72;55.02
38780;BME280;29273;49.962;9.768;2023-04-09T02:50:05;100603.31;;;10.72;54.76
38780;BME280;29273;49.962;9.768;2023-04-09T02:52:32;100607.81;;;10.71;54.78
38780;BME280;29273;49.962;9.768;2023-04-09T02:54:58;100603.50;;;10.70;54.96
38780;BME280;29273;49.962;9.768;2023-04-09T02:57:23;100610.47;;;10.71;54.98
38780;BME280;29273;49.962;9.768;2023-04-09T02:59:49;100609.66;;;10.71;55.06
38780;BME280;29273;49.962;9.768;2023-04-09T03:02:14;100601.88;;;10.69;55.17
38780;BME280;29273;49.962;9.768;2023-04-09T03:04:40;100603.69;;;10.69;55.03
38780;BME280;29273;49.962;9.768;2023-04-09T03:07:05;100598.38;;;10.69;54.93
38780;BME280;29273;49.962;9.768;2023-04-09T03:09:31;100601.03;;;10.69;54.97
38780;BME280;29273;49.962;9.768;2023-04-09T03:11:57;100595.75;;;10.69;54.82
38780;BME280;29273;49.962;9.768;2023-04-09T03:14:23;100600.03;;;10.70;55.02
38780;BME280;29273;49.962;9.768;2023-04-09T03:16:48;100593.09;;;10.69;55.28
38780;BME280;29273;49.962;9.768;2023-04-09T03:19:14;100599.22;;;10.69;54.88
38780;BME280;29273;49.962;9.768;2023-04-09T03:21:40;100591.28;;;10.69;54.92
38780;BME280;29273;49.962;9.768;2023-04-09T03:24:06;100587.78;;;10.69;54.95
38780;BME280;29273;49.962;9.768;2023-04-09T03:26:31;100587.78;;;10.69;55.05
38780;BME280;29273;49.962;9.768;2023-04-09T03:29:03;100579.84;;;10.69;55.03
38780;BME280;29273;49.962;9.768;2023-04-09T03:31:28;100585.31;;;10.67;55.06
38780;BME280;29273;49.962;9.768;2023-04-09T03:33:55;100586.16;;;10.68;55.20
38780;BME280;29273;49.962;9.768;2023-04-09T03:36:21;100590.63;;;10.67;54.96
38780;BME280;29273;49.962;9.768;2023-04-09T03:38:54;100582.88;;;10.66;54.97
38780;BME280;29273;49.962;9.768;2023-04-09T03:41:25;100586.34;;;10.66;55.04
38780;BME280;29273;49.962;9.768;2023-04-09T03:43:52;100584.69;;;10.65;54.99
38780;BME280;29273;49.962;9.768;2023-04-09T03:46:22;100582.03;;;10.65;55.00
38780;BME280;29273;49.962;9.768;2023-04-09T03:48:49;100581.22;;;10.65;55.18
38780;BME280;29273;49.962;9.768;2023-04-09T03:51:17;100581.22;;;10.65;55.21
38780;BME280;29273;49.962;9.768;2023-04-09T03:53:48;100584.88;;;10.64;55.17
38780;BME280;29273;49.962;9.768;2023-04-09T03:56:14;100593.66;;;10.64;55.02
38780;BME280;29273;49.962;9.768;2023-04-09T03:58:41;100593.84;;;10.63;55.12
38780;BME280;29273;49.962;9.768;2023-04-09T04:01:08;100594.66;;;10.63;55.11
38780;BME280;29273;49.962;9.768;2023-04-09T04:03:43;100596.50;;;10.63;55.25
38780;BME280;29273;49.962;9.768;2023-04-09T04:06:21;100591.38;;;10.61;55.41
38780;BME280;29273;49.962;9.768;2023-04-09T04:09:05;100595.81;;;10.61;55.69
38780;BME280;29273;49.962;9.768;2023-04-09T04:11:41;100599.31;;;10.61;55.29
38780;BME280;29273;49.962;9.768;2023-04-09T04:14:07;100598.47;;;10.61;55.56
38780;BME280;29273;49.962;9.768;2023-04-09T04:16:32;100598.47;;;10.61;55.38
38780;BME280;29273;49.962;9.768;2023-04-09T04:19:00;100596.03;;;10.59;55.50
38780;BME280;29273;49.962;9.768;2023-04-09T04:21:28;100604.78;;;10.60;55.46
38780;BME280;29273;49.962;9.768;2023-04-09T04:23:58;100606.63;;;10.59;55.57
38780;BME280;29273;49.962;9.768;2023-04-09T04:26:26;100601.34;;;10.59;55.48
38780;BME280;29273;49.962;9.768;2023-04-09T04:28:52;100613.91;;;10.57;55.49
38780;BME280;29273;49.962;9.768;2023-04-09T04:31:41;100611.25;;;10.57;55.63
38780;BME280;29273;49.962;9.768;2023-04-09T04:34:07;100616.56;;;10.57;55.56
38780;BME280;29273;49.962;9.768;2023-04-09T04:36:33;100614.94;;;10.56;55.45
38780;BME280;29273;49.962;9.768;2023-04-09T04:38:59;100615.75;;;10.57;55.62
38780;BME280;29273;49.962;9.768;2023-04-09T04:41:30;100609.63;;;10.56;55.72
38780;BME280;29273;49.962;9.768;2023-04-09T04:44:06;100610.44;;;10.57;55.68
38780;BME280;29273;49.962;9.768;2023-04-09T04:46:33;100611.44;;;10.55;55.62
38780;BME280;29273;49.962;9.768;2023-04-09T04:48:58;100609.63;;;10.56;55.40
38780;BME280;29273;49.962;9.768;2023-04-09T04:51:24;100610.44;;;10.57;55.69
38780;BME280;29273;49.962;9.768;2023-04-09T04:54:12;100612.28;;;10.56;55.65
38780;BME280;29273;49.962;9.768;2023-04-09T04:56:44;100611.44;;;10.55;55.69
38780;BME280;29273;49.962;9.768;2023-04-09T04:59:17;100608.78;;;10.55;55.74
38780;BME280;29273;49.962;9.768;2023-04-09T05:02:03;100607.34;;;10.53;55.86
38780;BME280;29273;49.962;9.768;2023-04-09T05:04:34;100612.47;;;10.54;55.83
38780;BME280;29273;49.962;9.768;2023-04-09T05:07:00;100609.81;;;10.54;55.76
38780;BME280;29273;49.962;9.768;2023-04-09T05:09:26;100610.63;;;10.55;55.82
38780;BME280;29273;49.962;9.768;2023-04-09T05:11:59;100611.63;;;10.54;55.55
38780;BME280;29273;49.962;9.768;2023-04-09T05:14:25;100614.28;;;10.54;55.61
38780;BME280;29273;49.962;9.768;2023-04-09T05:16:51;100617.75;;;10.54;55.62
38780;BME280;29273;49.962;9.768;2023-04-09T05:19:20;100610.63;;;10.55;55.88
38780;BME280;29273;49.962;9.768;2023-04-09T05:21:47;100614.94;;;10.56;55.87
38780;BME280;29273;49.962;9.768;2023-04-09T05:24:18;100617.59;;;10.56;56.08
38780;BME280;29273;49.962;9.768;2023-04-09T05:26:44;100613.09;;;10.57;56.09
38780;BME280;29273;49.962;9.768;2023-04-09T05:29:10;100620.06;;;10.58;56.23
38780;BME280;29273;49.962;9.768;2023-04-09T05:31:36;100621.84;;;10.57;56.15
38780;BME280;29273;49.962;9.768;2023-04-09T05:34:05;100624.31;;;10.59;56.33
38780;BME280;29273;49.962;9.768;2023-04-09T05:36:38;100625.97;;;10.60;56.08
38780;BME280;29273;49.962;9.768;2023-04-09T05:39:04;100623.16;;;10.61;56.29
38780;BME280;29273;49.962;9.768;2023-04-09T05:41:29;100632.72;;;10.62;56.11
38780;BME280;29273;49.962;9.768;2023-04-09T05:44:23;100634.38;;;10.63;56.20
38780;BME280;29273;49.962;9.768;2023-04-09T05:46:51;100638.50;;;10.66;56.57
38780;BME280;29273;49.962;9.768;2023-04-09T05:49:21;100637.31;;;10.68;56.39
38780;BME280;29273;49.962;9.768;2023-04-09T05:51:50;100632.66;;;10.70;56.25
38780;BME280;29273;49.962;9.768;2023-04-09T05:54:22;100635.97;;;10.72;56.60
38780;BME280;29273;49.962;9.768;2023-04-09T05:56:47;100636.41;;;10.76;56.15
38780;BME280;29273;49.962;9.768;2023-04-09T05:59:13;100637.03;;;10.78;56.32
38780;BME280;29273;49.962;9.768;2023-04-09T06:01:39;100633.19;;;10.81;56.22
38780;BME280;29273;49.962;9.768;2023-04-09T06:04:04;100636.50;;;10.83;56.20
38780;BME280;29273;49.962;9.768;2023-04-09T06:06:30;100634.50;;;10.85;56.01
38780;BME280;29273;49.962;9.768;2023-04-09T06:08:56;100641.91;;;10.89;56.18
38780;BME280;29273;49.962;9.768;2023-04-09T06:11:21;100642.34;;;10.93;56.21
38780;BME280;29273;49.962;9.768;2023-04-09T06:13:47;100635.84;;;10.96;56.32
38780;BME280;29273;49.962;9.768;2023-04-09T06:16:12;100642.44;;;11.00;56.12
38780;BME280;29273;49.962;9.768;2023-04-09T06:18:38;100646.34;;;11.04;56.07
38780;BME280;29273;49.962;9.768;2023-04-09T06:21:05;100644.63;;;11.11;56.30
38780;BME280;29273;49.962;9.768;2023-04-09T06:23:31;100644.03;;;11.16;56.05
38780;BME280;29273;49.962;9.768;2023-04-09T06:25:57;100643.69;;;11.19;55.82
38780;BME280;29273;49.962;9.768;2023-04-09T06:28:23;100641.47;;;11.22;55.88
38780;BME280;29273;49.962;9.768;2023-04-09T06:30:49;100647.88;;;11.28;55.65
38780;BME280;29273;49.962;9.768;2023-04-09T06:33:14;100645.69;;;11.32;55.59
38780;BME280;29273;49.962;9.768;2023-04-09T06:35:40;100645.31;;;11.35;54.61
38780;BME280;29273;49.962;9.768;2023-04-09T06:38:06;100649.41;;;11.37;54.49
38780;BME280;29273;49.962;9.768;2023-04-09T06:40:36;100647.84;;;11.43;54.01
38780;BME280;29273;49.962;9.768;2023-04-09T06:43:02;100658.03;;;11.39;52.96
38780;BME280;29273;49.962;9.768;2023-04-09T06:45:36;100654.34;;;11.40;53.27
38780;BME280;29273;49.962;9.768;2023-04-09T06:48:02;100665.78;;;11.41;52.64
38780;BME280;29273;49.962;9.768;2023-04-09T06:50:28;100661.50;;;11.40;52.75
38780;BME280;29273;49.962;9.768;2023-04-09T06:52:54;100663.69;;;11.36;52.06
38780;BME280;29273;49.962;9.768;2023-04-09T06:55:20;100657.53;;;11.36;52.29
38780;BME280;29273;49.962;9.768;2023-04-09T06:57:46;100664.69;;;11.35;52.32
38780;BME280;29273;49.962;9.768;2023-04-09T07:00:11;100658.75;;;11.33;52.16
38780;BME280;29273;49.962;9.768;2023-04-09T07:02:37;100664.06;;;11.33;52.13
38780;BME280;29273;49.962;9.768;2023-04-09T07:05:03;100660.59;;;11.33;52.18
38780;BME280;29273;49.962;9.768;2023-04-09T07:07:29;100663.25;;;11.33;51.90
38780;BME280;29273;49.962;9.768;2023-04-09T07:09:55;100658.94;;;11.32;51.80
38780;BME280;29273;49.962;9.768;2023-04-09T07:12:33;100665.31;;;11.37;53.18
38780;BME280;29273;49.962;9.768;2023-04-09T07:15:00;100663.06;;;11.34;52.56
38780;BME280;29273;49.962;9.768;2023-04-09T07:17:26;100656.91;;;11.34;52.21
38780;BME280;29273;49.962;9.768;2023-04-09T07:19:52;100665.50;;;11.36;51.98
38780;BME280;29273;49.962;9.768;2023-04-09T07:22:22;100667.41;;;11.42;52.20
38780;BME280;29273;49.962;9.768;2023-04-09T07:24:48;100667.97;;;11.37;52.02
38780;BME280;29273;49.962;9.768;2023-04-09T07:27:24;100673.34;;;11.44;52.64
38780;BME280;29273;49.962;9.768;2023-04-09T07:29:52;100670.91;;;11.42;52.42
38780;BME280;29273;49.962;9.768;2023-04-09T07:32:18;100671.72;;;11.43;52.08
38780;BME280;29273;49.962;9.768;2023-04-09T07:34:43;100675.63;;;11.47;52.16
38780;BME280;29273;49.962;9.768;2023-04-09T07:37:09;100674.47;;;11.50;51.95
38780;BME280;29273;49.962;9.768;2023-04-09T07:39:35;100680.41;;;11.52;52.22
38780;BME280;29273;49.962;9.768;2023-04-09T07:42:02;100680.84;;;11.55;52.10
38780;BME280;29273;49.962;9.768;2023-04-09T07:44:29;100676.81;;;11.59;52.06
38780;BME280;29273;49.962;9.768;2023-04-09T07:46:57;100676.63;;;11.61;52.13
38780;BME280;29273;49.962;9.768;2023-04-09T07:49:23;100678.88;;;11.64;52.12
38780;BME280;29273;49.962;9.768;2023-04-09T07:51:48;100674.25;;;11.66;51.44
38780;BME280;29273;49.962;9.768;2023-04-09T07:54:14;100677.53;;;11.68;51.30
38780;BME280;29273;49.962;9.768;2023-04-09T07:56:40;100669.38;;;11.70;51.15
38780;BME280;29273;49.962;9.768;2023-04-09T07:59:05;100673.47;;;11.72;51.42
38780;BME280;29273;49.962;9.768;2023-04-09T08:01:31;100678.59;;;11.74;51.61
38780;BME280;29273;49.962;9.768;2023-04-09T08:03:56;100672.28;;;11.75;51.09
38780;BME280;29273;49.962;9.768;2023-04-09T08:06:22;100668.41;;;11.77;51.32
38780;BME280;29273;49.962;9.768;2023-04-09T08:08:47;100678.03;;;11.78;51.06
38780;BME280;29273;49.962;9.768;2023-04-09T08:11:13;100680.31;;;11.81;51.25
38780;BME280;29273;49.962;9.768;2023-04-09T08:13:38;100670.50;;;11.82;51.05
38780;BME280;29273;49.962;9.768;2023-04-09T08:16:04;100677.91;;;11.87;51.45
38780;BME280;29273;49.962;9.768;2023-04-09T08:18:30;100673.22;;;11.89;51.41
38780;BME280;29273;49.962;9.768;2023-04-09T08:20:56;100674.75;;;11.91;51.75
38780;BME280;29273;49.962;9.768;2023-04-09T08:23:22;100673.34;;;11.95;51.70
38780;BME280;29273;49.962;9.768;2023-04-09T08:25:47;100672.97;;;11.98;51.24
38780;BME280;29273;49.962;9.768;2023-04-09T08:28:13;100665.25;;;12.03;50.94
38780;BME280;29273;49.962;9.768;2023-04-09T08:30:38;100664.50;;;12.10;51.68
38780;BME280;29273;49.962;9.768;2023-04-09T08:33:04;100671.50;;;12.17;51.08
38780;BME280;29273;49.962;9.768;2023-04-09T08:35:30;100672.19;;;12.26;50.86
38780;BME280;29273;49.962;9.768;2023-04-09T08:37:56;100672.63;;;12.30;50.87
38780;BME280;29273;49.962;9.768;2023-04-09T08:40:22;100680.47;;;12.38;51.33
38780;BME280;29273;49.962;9.768;2023-04-09T08:42:53;100678.09;;;12.50;51.05
38780;BME280;29273;49.962;9.768;2023-04-09T08:45:20;100674.81;;;12.48;51.00
38780;BME280;29273;49.962;9.768;2023-04-09T08:47:47;100686.56;;;12.60;51.23
38780;BME280;29273;49.962;9.768;2023-04-09T08:50:13;100682.91;;;12.61;49.77
38780;BME280;29273;49.962;9.768;2023-04-09T08:52:39;100684.75;;;12.67;50.08
38780;BME280;29273;49.962;9.768;2023-04-09T08:55:06;100688.31;;;12.74;50.76
38780;BME280;29273;49.962;9.768;2023-04-09T08:57:38;100685.69;;;12.81;51.28
38780;BME280;29273;49.962;9.768;2023-04-09T09:00:06;100688.97;;;12.83;50.23
38780;BME280;29273;49.962;9.768;2023-04-09T09:02:33;100682.84;;;12.83;49.57
38780;BME280;29273;49.962;9.768;2023-04-09T09:04:58;100685.91;;;12.86;49.27
38780;BME280;29273;49.962;9.768;2023-04-09T09:07:28;100680.25;;;12.96;50.29
38780;BME280;29273;49.962;9.768;2023-04-09T09:09:58;100677.00;;;13.01;50.08
38780;BME280;29273;49.962;9.768;2023-04-09T09:12:30;100681.72;;;13.05;50.29
38780;BME280;29273;49.962;9.768;2023-04-09T09:14:56;100677.81;;;13.01;48.63
38780;BME280;29273;49.962;9.768;2023-04-09T09:17:22;100682.56;;;13.06;48.68
38780;BME280;29273;49.962;9.768;2023-04-09T09:19:47;100680.53;;;13.08;48.74
38780;BME280;29273;49.962;9.768;2023-04-09T09:22:13;100683.41;;;13.13;48.85
38780;BME280;29273;49.962;9.768;2023-04-09T09:24:49;100682.44;;;13.21;50.22
38780;BME280;29273;49.962;9.768;2023-04-09T09:27:35;100683.25;;;13.21;50.90
38780;BME280;29273;49.962;9.768;2023-04-09T09:30:02;100673.41;;;13.22;49.06
38780;BME280;29273;49.962;9.768;2023-04-09T09:32:29;100681.59;;;13.20;48.31
38780;BME280;29273;49.962;9.768;2023-04-09T09:35:13;100670.38;;;13.25;50.53
38780;BME280;29273;49.962;9.768;2023-04-09T09:37:38;100672.22;;;13.24;48.36
38780;BME280;29273;49.962;9.768;2023-04-09T09:40:04;100675.50;;;13.26;47.44
38780;BME280;29273;49.962;9.768;2023-04-09T09:42:30;100670.59;;;13.30;48.23
38780;BME280;29273;49.962;9.768;2023-04-09T09:44:57;100672.69;;;13.35;48.70
38780;BME280;29273;49.962;9.768;2023-04-09T09:47:23;100670.03;;;13.35;47.72
38780;BME280;29273;49.962;9.768;2023-04-09T09:49:50;100670.25;;;13.40;47.31
38780;BME280;29273;49.962;9.768;2023-04-09T09:52:21;100676.63;;;13.52;48.22
38780;BME280;29273;49.962;9.768;2023-04-09T09:54:50;100669.09;;;13.56;48.06
38780;BME280;29273;49.962;9.768;2023-04-09T09:57:20;100654.56;;;13.58;46.60
38780;BME280;29273;49.962;9.768;2023-04-09T09:59:53;100664.63;;;13.69;48.76
38780;BME280;29273;49.962;9.768;2023-04-09T10:02:22;100656.84;;;13.75;48.25
38780;BME280;29273;49.962;9.768;2023-04-09T10:04:49;100660.75;;;13.79;46.72
38780;BME280;29273;49.962;9.768;2023-04-09T10:07:18;100660.97;;;13.84;47.03
38780;BME280;29273;49.962;9.768;2023-04-09T10:09:48;100658.75;;;13.94;48.08
38780;BME280;29273;49.962;9.768;2023-04-09T10:12:15;100656.69;;;13.96;46.75
38780;BME280;29273;49.962;9.768;2023-04-09T10:14:41;100652.38;;;14.02;46.68
38780;BME280;29273;49.962;9.768;2023-04-09T10:17:08;100656.09;;;14.07;46.28
38780;BME280;29273;49.962;9.768;2023-04-09T10:19:45;100652.81;;;14.19;48.40
38780;BME280;29273;49.962;9.768;2023-04-09T10:22:12;100651.56;;;14.21;47.00
38780;BME280;29273;49.962;9.768;2023-04-09T10:24:40;100657.72;;;14.22;45.67
38780;BME280;29273;49.962;9.768;2023-04-09T10:27:10;100651.16;;;14.31;47.28
38780;BME280;29273;49.962;9.768;2023-04-09T10:29:45;100644.59;;;14.34;47.69
38780;BME280;29273;49.962;9.768;2023-04-09T10:32:11;100650.34;;;14.31;44.91
38780;BME280;29273;49.962;9.768;2023-04-09T10:34:42;100642.38;;;14.37;45.85
38780;BME280;29273;49.962;9.768;2023-04-09T10:37:13;100635.19;;;14.38;45.15
38780;BME280;29273;49.962;9.768;2023-04-09T10:39:43;100639.25;;;14.40;44.99
38780;BME280;29273;49.962;9.768;2023-04-09T10:42:31;100641.31;;;14.45;47.98
38780;BME280;29273;49.962;9.768;2023-04-09T10:45:10;100639.69;;;14.51;46.25
38780;BME280;29273;49.962;9.768;2023-04-09T10:47:37;100638.63;;;14.52;44.25
38780;BME280;29273;49.962;9.768;2023-04-09T10:50:18;100640.91;;;14.61;46.57
38780;BME280;29273;49.962;9.768;2023-04-09T10:52:44;100640.31;;;14.59;43.38
38780;BME280;29273;49.962;9.768;2023-04-09T10:55:33;100639.28;;;14.67;46.83
38780;BME280;29273;49.962;9.768;2023-04-09T10:58:04;100630.03;;;14.70;43.79
38780;BME280;29273;49.962;9.768;2023-04-09T11:00:30;100629.00;;;14.71;42.68
38780;BME280;29273;49.962;9.768;2023-04-09T11:05:35;100623.47;;;14.79;44.28
38780;BME280;29273;49.962;9.768;2023-04-09T11:08:10;100627.75;;;14.80;45.17
38780;BME280;29273;49.962;9.768;2023-04-09T11:10:41;100623.00;;;14.82;44.26
38780;BME280;29273;49.962;9.768;2023-04-09T11:13:11;100623.31;;;14.60;47.19
38780;BME280;29273;49.962;9.768;2023-04-09T11:15:37;100611.94;;;14.78;43.44
38780;BME280;29273;49.962;9.768;2023-04-09T11:18:03;100609.47;;;14.84;41.92
38780;BME280;29273;49.962;9.768;2023-04-09T11:20:32;100611.09;;;14.91;42.74
38780;BME280;29273;49.962;9.768;2023-04-09T11:22:59;100601.25;;;14.92;41.67
38780;BME280;29273;49.962;9.768;2023-04-09T11:25:26;100596.94;;;14.97;42.85
38780;BME280;29273;49.962;9.768;2023-04-09T11:27:52;100602.28;;;14.97;41.35
38780;BME280;29273;49.962;9.768;2023-04-09T11:30:18;100598.56;;;14.98;41.65
38780;BME280;29273;49.962;9.768;2023-04-09T11:32:44;100601.84;;;15.01;41.35
38780;BME280;29273;49.962;9.768;2023-04-09T11:35:12;100593.19;;;15.05;41.73
38780;BME280;29273;49.962;9.768;2023-04-09T11:37:37;100600.97;;;15.07;41.13
38780;BME280;29273;49.962;9.768;2023-04-09T11:40:03;100605.91;;;15.10;41.97
38780;BME280;29273;49.962;9.768;2023-04-09T11:42:31;100614.91;;;15.15;42.76
38780;BME280;29273;49.962;9.768;2023-04-09T11:44:58;100614.28;;;15.13;40.88
38780;BME280;29273;49.962;9.768;2023-04-09T11:47:25;100602.59;;;15.14;40.32
38780;BME280;29273;49.962;9.768;2023-04-09T11:49:51;100609.34;;;15.17;40.43
38780;BME280;29273;49.962;9.768;2023-04-09T11:52:17;100600.31;;;15.18;41.40
38780;BME280;29273;49.962;9.768;2023-04-09T11:54:49;100611.56;;;15.27;43.33
38780;BME280;29273;49.962;9.768;2023-04-09T11:57:14;100608.13;;;15.20;40.91
38780;BME280;29273;49.962;9.768;2023-04-09T11:59:40;100612.22;;;15.22;40.31
38780;BME280;29273;49.962;9.768;2023-04-09T12:02:06;100610.38;;;15.23;40.50
38780;BME280;29273;49.962;9.768;2023-04-09T12:04:32;100604.41;;;15.27;40.55
38780;BME280;29273;49.962;9.768;2023-04-09T12:06:58;100594.72;;;15.33;39.77
38780;BME280;29273;49.962;9.768;2023-04-09T12:09:24;100590.97;;;15.41;40.60
38780;BME280;29273;49.962;9.768;2023-04-09T12:11:49;100588.28;;;15.47;39.03
38780;BME280;29273;49.962;9.768;2023-04-09T12:14:16;100595.16;;;15.62;40.81
38780;BME280;29273;49.962;9.768;2023-04-09T12:16:42;100600.44;;;15.68;39.42
38780;BME280;29273;49.962;9.768;2023-04-09T12:19:12;100597.50;;;15.83;42.80
38780;BME280;29273;49.962;9.768;2023-04-09T12:21:49;100588.19;;;15.93;44.15
38780;BME280;29273;49.962;9.768;2023-04-09T12:24:19;100589.53;;;16.02;42.17
38780;BME280;29273;49.962;9.768;2023-04-09T12:26:46;100582.72;;;16.06;39.68
38780;BME280;29273;49.962;9.768;2023-04-09T12:29:13;100579.94;;;16.19;40.85
38780;BME280;29273;49.962;9.768;2023-04-09T12:31:40;100581.13;;;16.23;39.31
38780;BME280;29273;49.962;9.768;2023-04-09T12:34:06;100575.94;;;16.28;39.53
38780;BME280;29273;49.962;9.768;2023-04-09T12:36:31;100581.69;;;16.32;39.21
38780;BME280;29273;49.962;9.768;2023-04-09T12:38:57;100581.47;;;16.34;38.13
38780;BME280;29273;49.962;9.768;2023-04-09T12:41:22;100579.81;;;16.33;37.28
38780;BME280;29273;49.962;9.768;2023-04-09T12:43:48;100572.81;;;16.32;38.35
38780;BME280;29273;49.962;9.768;2023-04-09T12:46:13;100572.03;;;16.31;37.16
38780;BME280;29273;49.962;9.768;2023-04-09T12:48:39;100573.50;;;16.27;36.67
38780;BME280;29273;49.962;9.768;2023-04-09T12:51:05;100566.75;;;16.24;36.97
38780;BME280;29273;49.962;9.768;2023-04-09T12:53:31;100563.47;;;16.22;37.80
38780;BME280;29273;49.962;9.768;2023-04-09T12:55:57;100559.38;;;16.20;36.79
38780;BME280;29273;49.962;9.768;2023-04-09T12:58:23;100556.91;;;16.18;37.88
38780;BME280;29273;49.962;9.768;2023-04-09T13:00:48;100550.53;;;16.19;37.11